sensor_id;sensor_type;location;lat;lon;timestamp;P1;durP1;ratioP1;P2;durP2;ratioP2
2860;SDS011;1438;50.922;6.704;2022-08-19T00:00:14;11.30;;;9.53;;
2860;SDS011;1438;50.922;6.704;2022-08-19T00:02:41;13.40;;;11.30;;
2860;SDS011;1438;50.922;6.704;2022-08-19T00:05:07;10.80;;;9.70;;
2860;SDS011;1438;50.922;6.704;2022-08-19T00:07:34;11.10;;;10.00;;
2860;SDS011;1438;50.922;6.704;2022-08-19T00:10:00;12.83;;;11.57;;
2860;SDS011;1438;50.922;6.704;2022-08-19T00:12:26;11.37;;;10.33;;
2860;SDS011;1438;50.922;6.704;2022-08-19T00:14:52;12.70;;;10.67;;
2860;SDS011;1438;50.922;6.704;2022-08-19T00:17:19;12.23;;;11.10;;
2860;SDS011;1438;50.922;6.704;2022-08-19T00:19:45;12.43;;;10.60;;
2860;SDS011;1438;50.922;6.704;2022-08-19T00:22:11;10.70;;;9.70;;
2860;SDS011;1438;50.922;6.704;2022-08-19T00:24:37;11.57;;;9.50;;
2860;SDS011;1438;50.922;6.704;2022-08-19T00:27:03;12.13;;;10.10;;
2860;SDS011;1438;50.922;6.704;2022-08-19T00:29:29;11.33;;;10.10;;
2860;SDS011;1438;50.922;6.704;2022-08-19T00:31:55;13.97;;;10.57;;
2860;SDS011;1438;50.922;6.704;2022-08-19T00:34:23;11.03;;;10.03;;
2860;SDS011;1438;50.922;6.704;2022-08-19T00:36:52;13.83;;;9.90;;
2860;SDS011;1438;50.922;6.704;2022-08-19T00:39:18;11.60;;;10.53;;
2860;SDS011;1438;50.922;6.704;2022-08-19T00:41:45;12.27;;;11.07;;
2860;SDS011;1438;50.922;6.704;2022-08-19T00:46:41;10.93;;;9.87;;
2860;SDS011;1438;50.922;6.704;2022-08-19T00:49:12;11.10;;;10.17;;
2860;SDS011;1438;50.922;6.704;2022-08-19T00:51:39;12.27;;;11.17;;
2860;SDS011;1438;50.922;6.704;2022-08-19T00:54:06;11.20;;;10.20;;
2860;SDS011;1438;50.922;6.704;2022-08-19T00:56:34;12.80;;;11.10;;
2860;SDS011;1438;50.922;6.704;2022-08-19T00:59:00;11.40;;;10.40;;
2860;SDS011;1438;50.922;6.704;2022-08-19T01:01:27;11.07;;;10.03;;
2860;SDS011;1438;50.922;6.704;2022-08-19T01:03:53;11.23;;;10.00;;
2860;SDS011;1438;50.922;6.704;2022-08-19T01:06:19;11.33;;;10.37;;
2860;SDS011;1438;50.922;6.704;2022-08-19T01:08:45;13.17;;;11.87;;
2860;SDS011;1438;50.922;6.704;2022-08-19T01:11:11;12.07;;;10.97;;
2860;SDS011;1438;50.922;6.704;2022-08-19T01:13:38;12.37;;;11.17;;
2860;SDS011;1438;50.922;6.704;2022-08-19T01:16:05;13.40;;;11.90;;
2860;SDS011;1438;50.922;6.704;2022-08-19T01:18:32;11.47;;;10.37;;
2860;SDS011;1438;50.922;6.704;2022-08-19T01:21:02;12.27;;;10.90;;
2860;SDS011;1438;50.922;6.704;2022-08-19T01:23:31;12.43;;;11.30;;
2860;SDS011;1438;50.922;6.704;2022-08-19T01:26:10;12.33;;;11.13;;
2860;SDS011;1438;50.922;6.704;2022-08-19T01:28:37;12.60;;;11.03;;
2860;SDS011;1438;50.922;6.704;2022-08-19T01:31:03;12.40;;;11.23;;
2860;SDS011;1438;50.922;6.704;2022-08-19T01:33:29;12.73;;;11.43;;
2860;SDS011;1438;50.922;6.704;2022-08-19T01:36:06;13.10;;;11.77;;
2860;SDS011;1438;50.922;6.704;2022-08-19T01:38:34;13.53;;;11.53;;
2860;SDS011;1438;50.922;6.704;2022-08-19T01:41:01;12.30;;;11.20;;
2860;SDS011;1438;50.922;6.704;2022-08-19T01:43:27;13.53;;;11.20;;
2860;SDS011;1438;50.922;6.704;2022-08-19T01:45:54;13.07;;;11.97;;
2860;SDS011;1438;50.922;6.704;2022-08-19T01:48:20;13.20;;;11.20;;
2860;SDS011;1438;50.922;6.704;2022-08-19T01:50:46;11.90;;;10.70;;
2860;SDS011;1438;50.922;6.704;2022-08-19T01:53:13;13.47;;;11.20;;
2860;SDS011;1438;50.922;6.704;2022-08-19T01:55:40;13.33;;;11.70;;
2860;SDS011;1438;50.922;6.704;2022-08-19T01:58:07;14.17;;;12.57;;
2860;SDS011;1438;50.922;6.704;2022-08-19T02:00:34;13.47;;;12.17;;
2860;SDS011;1438;50.922;6.704;2022-08-19T02:03:00;16.73;;;14.97;;
2860;SDS011;1438;50.922;6.704;2022-08-19T02:05:26;12.80;;;11.60;;
2860;SDS011;1438;50.922;6.704;2022-08-19T02:07:54;12.43;;;11.23;;
2860;SDS011;1438;50.922;6.704;2022-08-19T02:10:21;13.57;;;11.10;;
2860;SDS011;1438;50.922;6.704;2022-08-19T02:12:47;12.70;;;11.40;;
2860;SDS011;1438;50.922;6.704;2022-08-19T02:15:17;13.07;;;11.87;;
2860;SDS011;1438;50.922;6.704;2022-08-19T02:17:44;17.03;;;13.53;;
2860;SDS011;1438;50.922;6.704;2022-08-19T02:20:10;11.70;;;10.70;;
2860;SDS011;1438;50.922;6.704;2022-08-19T02:22:37;18.30;;;12.67;;
2860;SDS011;1438;50.922;6.704;2022-08-19T02:25:06;12.20;;;11.13;;
2860;SDS011;1438;50.922;6.704;2022-08-19T02:27:32;12.00;;;10.87;;
2860;SDS011;1438;50.922;6.704;2022-08-19T02:29:58;12.87;;;11.57;;
2860;SDS011;1438;50.922;6.704;2022-08-19T02:32:25;12.70;;;11.47;;
2860;SDS011;1438;50.922;6.704;2022-08-19T02:34:52;13.90;;;12.40;;
2860;SDS011;1438;50.922;6.704;2022-08-19T02:37:18;15.13;;;13.67;;
2860;SDS011;1438;50.922;6.704;2022-08-19T02:40:03;12.67;;;11.40;;
2860;SDS011;1438;50.922;6.704;2022-08-19T02:42:29;15.03;;;13.43;;
2860;SDS011;1438;50.922;6.704;2022-08-19T02:44:56;12.90;;;11.63;;
2860;SDS011;1438;50.922;6.704;2022-08-19T02:47:22;16.67;;;14.03;;
2860;SDS011;1438;50.922;6.704;2022-08-19T02:49:48;17.07;;;13.10;;
2860;SDS011;1438;50.922;6.704;2022-08-19T02:52:17;13.57;;;12.27;;
2860;SDS011;1438;50.922;6.704;2022-08-19T02:54:43;18.00;;;13.30;;
2860;SDS011;1438;50.922;6.704;2022-08-19T02:57:09;16.50;;;14.70;;
2860;SDS011;1438;50.922;6.704;2022-08-19T02:59:35;16.77;;;15.17;;
2860;SDS011;1438;50.922;6.704;2022-08-19T03:02:01;15.73;;;14.33;;
2860;SDS011;1438;50.922;6.704;2022-08-19T03:04:27;15.80;;;14.40;;
2860;SDS011;1438;50.922;6.704;2022-08-19T03:06:54;15.17;;;13.33;;
2860;SDS011;1438;50.922;6.704;2022-08-19T03:09:20;16.47;;;14.97;;
2860;SDS011;1438;50.922;6.704;2022-08-19T03:11:46;15.30;;;13.80;;
2860;SDS011;1438;50.922;6.704;2022-08-19T03:14:12;15.40;;;13.90;;
2860;SDS011;1438;50.922;6.704;2022-08-19T03:16:41;17.87;;;15.53;;
2860;SDS011;1438;50.922;6.704;2022-08-19T03:19:07;18.53;;;14.10;;
2860;SDS011;1438;50.922;6.704;2022-08-19T03:21:33;15.17;;;13.57;;
2860;SDS011;1438;50.922;6.704;2022-08-19T03:24:01;15.57;;;14.10;;
2860;SDS011;1438;50.922;6.704;2022-08-19T03:26:28;15.80;;;14.30;;
2860;SDS011;1438;50.922;6.704;2022-08-19T03:28:54;16.70;;;14.90;;
2860;SDS011;1438;50.922;6.704;2022-08-19T03:31:21;16.90;;;15.10;;
2860;SDS011;1438;50.922;6.704;2022-08-19T03:33:48;18.07;;;16.13;;
2860;SDS011;1438;50.922;6.704;2022-08-19T03:36:21;19.77;;;17.63;;
2860;SDS011;1438;50.922;6.704;2022-08-19T03:38:49;16.37;;;14.80;;
2860;SDS011;1438;50.922;6.704;2022-08-19T03:41:19;19.43;;;17.23;;
2860;SDS011;1438;50.922;6.704;2022-08-19T03:43:46;16.10;;;14.70;;
2860;SDS011;1438;50.922;6.704;2022-08-19T03:46:15;30.83;;;13.70;;
2860;SDS011;1438;50.922;6.704;2022-08-19T03:48:42;15.97;;;14.40;;
2860;SDS011;1438;50.922;6.704;2022-08-19T03:51:15;15.03;;;13.43;;
2860;SDS011;1438;50.922;6.704;2022-08-19T03:53:41;13.83;;;12.33;;
2860;SDS011;1438;50.922;6.704;2022-08-19T03:56:08;16.90;;;13.17;;
2860;SDS011;1438;50.922;6.704;2022-08-19T03:58:34;15.17;;;13.70;;
2860;SDS011;1438;50.922;6.704;2022-08-19T04:01:02;16.43;;;15.00;;
2860;SDS011;1438;50.922;6.704;2022-08-19T04:03:28;18.03;;;16.30;;
2860;SDS011;1438;50.922;6.704;2022-08-19T04:05:54;18.00;;;15.00;;
2860;SDS011;1438;50.922;6.704;2022-08-19T04:08:20;17.30;;;15.50;;
2860;SDS011;1438;50.922;6.704;2022-08-19T04:10:47;17.23;;;15.20;;
2860;SDS011;1438;50.922;6.704;2022-08-19T04:13:17;18.90;;;16.57;;
2860;SDS011;1438;50.922;6.704;2022-08-19T04:15:43;16.23;;;14.63;;
2860;SDS011;1438;50.922;6.704;2022-08-19T04:18:11;17.10;;;15.40;;
2860;SDS011;1438;50.922;6.704;2022-08-19T04:20:40;17.37;;;15.57;;
2860;SDS011;1438;50.922;6.704;2022-08-19T04:23:06;21.07;;;18.20;;
2860;SDS011;1438;50.922;6.704;2022-08-19T04:25:37;20.60;;;16.60;;
2860;SDS011;1438;50.922;6.704;2022-08-19T04:28:03;18.77;;;16.77;;
2860;SDS011;1438;50.922;6.704;2022-08-19T04:30:29;18.87;;;17.07;;
2860;SDS011;1438;50.922;6.704;2022-08-19T04:32:55;18.73;;;16.93;;
2860;SDS011;1438;50.922;6.704;2022-08-19T04:35:21;20.00;;;18.07;;
2860;SDS011;1438;50.922;6.704;2022-08-19T04:37:47;23.27;;;20.93;;
2860;SDS011;1438;50.922;6.704;2022-08-19T04:40:13;25.87;;;22.47;;
2860;SDS011;1438;50.922;6.704;2022-08-19T04:42:58;25.20;;;21.83;;
2860;SDS011;1438;50.922;6.704;2022-08-19T04:45:24;25.10;;;22.03;;
2860;SDS011;1438;50.922;6.704;2022-08-19T04:47:54;29.47;;;21.93;;
2860;SDS011;1438;50.922;6.704;2022-08-19T04:50:21;25.33;;;21.73;;
2860;SDS011;1438;50.922;6.704;2022-08-19T04:52:47;22.20;;;20.00;;
2860;SDS011;1438;50.922;6.704;2022-08-19T04:55:15;20.73;;;18.63;;
2860;SDS011;1438;50.922;6.704;2022-08-19T04:57:42;21.67;;;19.47;;
2860;SDS011;1438;50.922;6.704;2022-08-19T05:00:09;21.23;;;18.80;;
2860;SDS011;1438;50.922;6.704;2022-08-19T05:02:36;22.63;;;19.77;;
2860;SDS011;1438;50.922;6.704;2022-08-19T05:05:02;23.20;;;19.50;;
2860;SDS011;1438;50.922;6.704;2022-08-19T05:07:28;21.70;;;19.50;;
2860;SDS011;1438;50.922;6.704;2022-08-19T05:09:54;26.63;;;21.10;;
2860;SDS011;1438;50.922;6.704;2022-08-19T05:12:20;29.23;;;20.93;;
2860;SDS011;1438;50.922;6.704;2022-08-19T05:14:46;23.73;;;21.37;;
2860;SDS011;1438;50.922;6.704;2022-08-19T05:17:13;25.13;;;22.47;;
2860;SDS011;1438;50.922;6.704;2022-08-19T05:19:39;23.73;;;21.33;;
2860;SDS011;1438;50.922;6.704;2022-08-19T05:22:24;22.90;;;20.50;;
2860;SDS011;1438;50.922;6.704;2022-08-19T05:25:06;27.03;;;20.67;;
2860;SDS011;1438;50.922;6.704;2022-08-19T05:27:33;28.83;;;24.90;;
2860;SDS011;1438;50.922;6.704;2022-08-19T05:29:59;29.43;;;22.57;;
2860;SDS011;1438;50.922;6.704;2022-08-19T05:32:26;29.07;;;25.50;;
2860;SDS011;1438;50.922;6.704;2022-08-19T05:34:52;27.43;;;24.53;;
2860;SDS011;1438;50.922;6.704;2022-08-19T05:37:18;26.23;;;23.63;;
2860;SDS011;1438;50.922;6.704;2022-08-19T05:39:44;31.50;;;26.50;;
2860;SDS011;1438;50.922;6.704;2022-08-19T05:42:10;28.50;;;25.60;;
2860;SDS011;1438;50.922;6.704;2022-08-19T05:44:38;31.60;;;27.83;;
2860;SDS011;1438;50.922;6.704;2022-08-19T05:47:08;29.67;;;26.47;;
2860;SDS011;1438;50.922;6.704;2022-08-19T05:49:34;34.23;;;28.93;;
2860;SDS011;1438;50.922;6.704;2022-08-19T05:52:03;49.47;;;37.13;;
2860;SDS011;1438;50.922;6.704;2022-08-19T05:54:29;42.57;;;36.13;;
2860;SDS011;1438;50.922;6.704;2022-08-19T05:56:55;42.77;;;38.07;;
2860;SDS011;1438;50.922;6.704;2022-08-19T05:59:22;53.53;;;43.90;;
2860;SDS011;1438;50.922;6.704;2022-08-19T06:01:49;45.37;;;40.47;;
2860;SDS011;1438;50.922;6.704;2022-08-19T06:04:16;47.23;;;40.27;;
2860;SDS011;1438;50.922;6.704;2022-08-19T06:06:43;48.03;;;38.10;;
2860;SDS011;1438;50.922;6.704;2022-08-19T06:09:09;50.03;;;43.17;;
2860;SDS011;1438;50.922;6.704;2022-08-19T06:14:04;48.50;;;43.17;;
2860;SDS011;1438;50.922;6.704;2022-08-19T06:16:30;53.93;;;44.80;;
2860;SDS011;1438;50.922;6.704;2022-08-19T06:19:00;49.43;;;42.30;;
2860;SDS011;1438;50.922;6.704;2022-08-19T06:21:27;45.37;;;40.27;;
2860;SDS011;1438;50.922;6.704;2022-08-19T06:23:53;49.67;;;41.27;;
2860;SDS011;1438;50.922;6.704;2022-08-19T06:26:20;54.40;;;45.87;;
2860;SDS011;1438;50.922;6.704;2022-08-19T06:28:47;50.10;;;44.73;;
2860;SDS011;1438;50.922;6.704;2022-08-19T06:31:17;50.67;;;43.67;;
2860;SDS011;1438;50.922;6.704;2022-08-19T06:33:45;49.33;;;43.93;;
2860;SDS011;1438;50.922;6.704;2022-08-19T06:38:44;51.53;;;43.97;;
2860;SDS011;1438;50.922;6.704;2022-08-19T06:41:10;54.90;;;45.37;;
2860;SDS011;1438;50.922;6.704;2022-08-19T06:43:36;55.53;;;43.97;;
2860;SDS011;1438;50.922;6.704;2022-08-19T06:46:02;53.10;;;42.97;;
2860;SDS011;1438;50.922;6.704;2022-08-19T06:48:29;54.70;;;45.07;;
2860;SDS011;1438;50.922;6.704;2022-08-19T06:50:56;61.37;;;47.33;;
2860;SDS011;1438;50.922;6.704;2022-08-19T06:53:22;54.80;;;46.57;;
2860;SDS011;1438;50.922;6.704;2022-08-19T06:55:48;50.67;;;43.83;;
2860;SDS011;1438;50.922;6.704;2022-08-19T06:58:19;56.00;;;43.37;;
2860;SDS011;1438;50.922;6.704;2022-08-19T07:00:45;53.43;;;44.70;;
2860;SDS011;1438;50.922;6.704;2022-08-19T07:03:11;66.53;;;46.47;;
2860;SDS011;1438;50.922;6.704;2022-08-19T07:05:39;62.30;;;47.10;;
2860;SDS011;1438;50.922;6.704;2022-08-19T07:08:05;60.50;;;46.50;;
2860;SDS011;1438;50.922;6.704;2022-08-19T07:10:32;68.27;;;48.63;;
2860;SDS011;1438;50.922;6.704;2022-08-19T07:12:59;65.27;;;47.10;;
2860;SDS011;1438;50.922;6.704;2022-08-19T07:15:26;63.03;;;49.47;;
2860;SDS011;1438;50.922;6.704;2022-08-19T07:17:52;70.30;;;48.70;;
2860;SDS011;1438;50.922;6.704;2022-08-19T07:20:18;58.80;;;48.63;;
2860;SDS011;1438;50.922;6.704;2022-08-19T07:22:44;62.90;;;46.27;;
2860;SDS011;1438;50.922;6.704;2022-08-19T07:25:10;63.27;;;46.37;;
2860;SDS011;1438;50.922;6.704;2022-08-19T07:27:38;64.73;;;47.97;;
2860;SDS011;1438;50.922;6.704;2022-08-19T07:30:04;61.50;;;47.53;;
2860;SDS011;1438;50.922;6.704;2022-08-19T07:32:30;63.63;;;47.37;;
2860;SDS011;1438;50.922;6.704;2022-08-19T07:34:56;68.77;;;48.83;;
2860;SDS011;1438;50.922;6.704;2022-08-19T07:37:23;70.27;;;49.20;;
2860;SDS011;1438;50.922;6.704;2022-08-19T07:39:51;65.80;;;47.17;;
2860;SDS011;1438;50.922;6.704;2022-08-19T07:42:18;79.67;;;49.53;;
2860;SDS011;1438;50.922;6.704;2022-08-19T07:44:45;72.40;;;49.70;;
2860;SDS011;1438;50.922;6.704;2022-08-19T07:47:12;83.67;;;50.47;;
2860;SDS011;1438;50.922;6.704;2022-08-19T07:49:40;69.30;;;48.30;;
2860;SDS011;1438;50.922;6.704;2022-08-19T07:52:08;70.00;;;47.37;;
2860;SDS011;1438;50.922;6.704;2022-08-19T07:54:36;73.33;;;49.53;;
2860;SDS011;1438;50.922;6.704;2022-08-19T07:57:03;75.20;;;51.17;;
2860;SDS011;1438;50.922;6.704;2022-08-19T07:59:29;73.73;;;49.87;;
2860;SDS011;1438;50.922;6.704;2022-08-19T08:01:56;71.20;;;49.93;;
2860;SDS011;1438;50.922;6.704;2022-08-19T08:04:22;74.73;;;48.97;;
2860;SDS011;1438;50.922;6.704;2022-08-19T08:07:07;60.30;;;47.03;;
2860;SDS011;1438;50.922;6.704;2022-08-19T08:09:52;68.13;;;48.93;;
2860;SDS011;1438;50.922;6.704;2022-08-19T08:12:20;67.93;;;50.23;;
2860;SDS011;1438;50.922;6.704;2022-08-19T08:14:49;68.63;;;49.67;;
2860;SDS011;1438;50.922;6.704;2022-08-19T08:17:17;65.27;;;43.80;;
2860;SDS011;1438;50.922;6.704;2022-08-19T08:19:44;60.73;;;45.40;;
2860;SDS011;1438;50.922;6.704;2022-08-19T08:22:10;62.60;;;46.27;;
2860;SDS011;1438;50.922;6.704;2022-08-19T08:24:56;67.33;;;46.97;;
2860;SDS011;1438;50.922;6.704;2022-08-19T08:27:25;60.27;;;43.93;;
2860;SDS011;1438;50.922;6.704;2022-08-19T08:29:56;57.93;;;44.50;;
2860;SDS011;1438;50.922;6.704;2022-08-19T08:32:22;63.10;;;47.77;;
2860;SDS011;1438;50.922;6.704;2022-08-19T08:34:48;54.67;;;43.00;;
2860;SDS011;1438;50.922;6.704;2022-08-19T08:37:14;60.60;;;44.83;;
2860;SDS011;1438;50.922;6.704;2022-08-19T08:39:40;61.40;;;45.63;;
2860;SDS011;1438;50.922;6.704;2022-08-19T08:42:07;64.57;;;45.13;;
2860;SDS011;1438;50.922;6.704;2022-08-19T08:44:49;53.53;;;41.87;;
2860;SDS011;1438;50.922;6.704;2022-08-19T08:47:18;59.90;;;42.83;;
2860;SDS011;1438;50.922;6.704;2022-08-19T08:49:54;55.23;;;41.70;;
2860;SDS011;1438;50.922;6.704;2022-08-19T08:54:48;54.30;;;44.00;;
2860;SDS011;1438;50.922;6.704;2022-08-19T09:00:06;52.20;;;41.93;;
2860;SDS011;1438;50.922;6.704;2022-08-19T09:02:32;47.03;;;37.30;;
2860;SDS011;1438;50.922;6.704;2022-08-19T09:04:59;53.33;;;37.73;;
2860;SDS011;1438;50.922;6.704;2022-08-19T09:07:30;46.53;;;37.83;;
2860;SDS011;1438;50.922;6.704;2022-08-19T09:10:08;43.97;;;36.67;;
2860;SDS011;1438;50.922;6.704;2022-08-19T09:12:43;36.23;;;31.37;;
2860;SDS011;1438;50.922;6.704;2022-08-19T09:15:13;42.80;;;34.43;;
2860;SDS011;1438;50.922;6.704;2022-08-19T09:17:41;37.30;;;33.13;;
2860;SDS011;1438;50.922;6.704;2022-08-19T09:22:36;30.27;;;27.10;;
2860;SDS011;1438;50.922;6.704;2022-08-19T09:25:02;31.47;;;28.23;;
2860;SDS011;1438;50.922;6.704;2022-08-19T09:27:29;30.03;;;25.83;;
2860;SDS011;1438;50.922;6.704;2022-08-19T09:29:56;32.10;;;26.67;;
2860;SDS011;1438;50.922;6.704;2022-08-19T09:32:23;27.00;;;24.10;;
2860;SDS011;1438;50.922;6.704;2022-08-19T09:34:50;22.07;;;19.80;;
2860;SDS011;1438;50.922;6.704;2022-08-19T09:37:19;20.30;;;18.30;;
2860;SDS011;1438;50.922;6.704;2022-08-19T09:39:46;24.10;;;18.67;;
2860;SDS011;1438;50.922;6.704;2022-08-19T09:42:12;20.77;;;17.47;;
2860;SDS011;1438;50.922;6.704;2022-08-19T09:44:39;18.90;;;15.30;;
2860;SDS011;1438;50.922;6.704;2022-08-19T09:47:05;21.53;;;15.73;;
2860;SDS011;1438;50.922;6.704;2022-08-19T09:49:32;22.30;;;16.80;;
2860;SDS011;1438;50.922;6.704;2022-08-19T09:51:58;23.03;;;17.83;;
2860;SDS011;1438;50.922;6.704;2022-08-19T09:54:24;21.97;;;19.67;;
2860;SDS011;1438;50.922;6.704;2022-08-19T09:56:51;29.13;;;23.10;;
2860;SDS011;1438;50.922;6.704;2022-08-19T09:59:17;25.73;;;22.97;;
2860;SDS011;1438;50.922;6.704;2022-08-19T10:01:43;22.67;;;20.27;;
2860;SDS011;1438;50.922;6.704;2022-08-19T10:04:09;24.43;;;21.67;;
2860;SDS011;1438;50.922;6.704;2022-08-19T10:06:37;25.57;;;20.83;;
2860;SDS011;1438;50.922;6.704;2022-08-19T10:09:04;23.57;;;18.97;;
2860;SDS011;1438;50.922;6.704;2022-08-19T10:11:31;24.43;;;18.40;;
2860;SDS011;1438;50.922;6.704;2022-08-19T10:13:58;20.97;;;18.80;;
2860;SDS011;1438;50.922;6.704;2022-08-19T10:16:24;20.30;;;18.17;;
2860;SDS011;1438;50.922;6.704;2022-08-19T10:18:51;18.50;;;16.50;;
2860;SDS011;1438;50.922;6.704;2022-08-19T10:21:19;18.43;;;16.53;;
2860;SDS011;1438;50.922;6.704;2022-08-19T10:23:46;18.17;;;16.47;;
2860;SDS011;1438;50.922;6.704;2022-08-19T10:26:14;16.00;;;13.67;;
2860;SDS011;1438;50.922;6.704;2022-08-19T10:28:40;16.13;;;14.53;;
2860;SDS011;1438;50.922;6.704;2022-08-19T10:31:07;16.40;;;13.13;;
2860;SDS011;1438;50.922;6.704;2022-08-19T10:33:34;17.50;;;13.20;;
2860;SDS011;1438;50.922;6.704;2022-08-19T10:36:02;15.60;;;14.00;;
2860;SDS011;1438;50.922;6.704;2022-08-19T10:38:28;14.93;;;13.33;;
2860;SDS011;1438;50.922;6.704;2022-08-19T10:40:54;17.20;;;15.40;;
2860;SDS011;1438;50.922;6.704;2022-08-19T10:43:20;15.63;;;14.03;;
2860;SDS011;1438;50.922;6.704;2022-08-19T10:45:53;20.37;;;18.20;;
2860;SDS011;1438;50.922;6.704;2022-08-19T10:48:24;15.20;;;13.80;;
2860;SDS011;1438;50.922;6.704;2022-08-19T10:50:50;15.50;;;14.00;;
2860;SDS011;1438;50.922;6.704;2022-08-19T10:53:36;14.23;;;11.70;;
2860;SDS011;1438;50.922;6.704;2022-08-19T10:56:02;17.53;;;15.63;;
2860;SDS011;1438;50.922;6.704;2022-08-19T10:58:47;17.20;;;13.90;;
2860;SDS011;1438;50.922;6.704;2022-08-19T11:01:13;16.97;;;15.27;;
2860;SDS011;1438;50.922;6.704;2022-08-19T11:03:40;17.03;;;15.40;;
2860;SDS011;1438;50.922;6.704;2022-08-19T11:06:06;15.30;;;13.90;;
2860;SDS011;1438;50.922;6.704;2022-08-19T11:08:33;16.47;;;14.40;;
2860;SDS011;1438;50.922;6.704;2022-08-19T11:11:00;17.80;;;15.70;;
2860;SDS011;1438;50.922;6.704;2022-08-19T11:13:28;18.33;;;16.40;;
2860;SDS011;1438;50.922;6.704;2022-08-19T11:15:58;17.00;;;15.40;;
2860;SDS011;1438;50.922;6.704;2022-08-19T11:18:24;17.73;;;14.30;;
2860;SDS011;1438;50.922;6.704;2022-08-19T11:20:51;15.83;;;14.23;;
2860;SDS011;1438;50.922;6.704;2022-08-19T11:23:17;18.00;;;16.13;;
2860;SDS011;1438;50.922;6.704;2022-08-19T11:25:43;13.60;;;11.80;;
2860;SDS011;1438;50.922;6.704;2022-08-19T11:28:10;13.60;;;11.80;;
2860;SDS011;1438;50.922;6.704;2022-08-19T11:30:37;15.80;;;14.00;;
2860;SDS011;1438;50.922;6.704;2022-08-19T11:33:03;16.77;;;14.30;;
2860;SDS011;1438;50.922;6.704;2022-08-19T11:35:29;15.37;;;13.77;;
2860;SDS011;1438;50.922;6.704;2022-08-19T11:37:55;17.30;;;15.60;;
2860;SDS011;1438;50.922;6.704;2022-08-19T11:40:26;16.33;;;13.50;;
2860;SDS011;1438;50.922;6.704;2022-08-19T11:42:52;17.77;;;15.93;;
2860;SDS011;1438;50.922;6.704;2022-08-19T11:45:22;17.70;;;15.50;;
2860;SDS011;1438;50.922;6.704;2022-08-19T11:47:48;17.90;;;15.90;;
2860;SDS011;1438;50.922;6.704;2022-08-19T11:50:14;17.27;;;15.50;;
2860;SDS011;1438;50.922;6.704;2022-08-19T11:52:41;20.67;;;18.50;;
2860;SDS011;1438;50.922;6.704;2022-08-19T11:55:09;19.67;;;17.57;;
2860;SDS011;1438;50.922;6.704;2022-08-19T11:57:39;21.97;;;19.00;;
2860;SDS011;1438;50.922;6.704;2022-08-19T12:00:06;18.40;;;15.70;;
2860;SDS011;1438;50.922;6.704;2022-08-19T12:02:32;13.50;;;12.10;;
2860;SDS011;1438;50.922;6.704;2022-08-19T12:04:58;13.50;;;11.73;;
2860;SDS011;1438;50.922;6.704;2022-08-19T12:07:27;14.33;;;12.90;;
2860;SDS011;1438;50.922;6.704;2022-08-19T12:09:55;14.13;;;12.50;;
2860;SDS011;1438;50.922;6.704;2022-08-19T12:12:21;15.43;;;13.80;;
2860;SDS011;1438;50.922;6.704;2022-08-19T12:14:49;14.73;;;12.27;;
2860;SDS011;1438;50.922;6.704;2022-08-19T12:17:21;13.83;;;12.50;;
2860;SDS011;1438;50.922;6.704;2022-08-19T12:19:47;13.57;;;12.00;;
2860;SDS011;1438;50.922;6.704;2022-08-19T12:22:13;13.50;;;12.20;;
2860;SDS011;1438;50.922;6.704;2022-08-19T12:24:39;11.57;;;10.30;;
2860;SDS011;1438;50.922;6.704;2022-08-19T12:27:05;11.00;;;10.00;;
2860;SDS011;1438;50.922;6.704;2022-08-19T12:29:31;11.80;;;8.83;;
2860;SDS011;1438;50.922;6.704;2022-08-19T12:31:58;10.60;;;9.13;;
2860;SDS011;1438;50.922;6.704;2022-08-19T12:34:27;10.10;;;9.20;;
2860;SDS011;1438;50.922;6.704;2022-08-19T12:36:57;11.13;;;10.13;;
2860;SDS011;1438;50.922;6.704;2022-08-19T12:39:23;11.97;;;10.77;;
2860;SDS011;1438;50.922;6.704;2022-08-19T12:41:49;10.83;;;9.73;;
2860;SDS011;1438;50.922;6.704;2022-08-19T12:44:16;11.60;;;9.20;;
2860;SDS011;1438;50.922;6.704;2022-08-19T12:46:42;8.67;;;7.83;;
2860;SDS011;1438;50.922;6.704;2022-08-19T12:49:08;11.37;;;8.80;;
2860;SDS011;1438;50.922;6.704;2022-08-19T12:51:34;11.17;;;9.27;;
2860;SDS011;1438;50.922;6.704;2022-08-19T12:54:00;10.67;;;9.57;;
2860;SDS011;1438;50.922;6.704;2022-08-19T12:56:27;12.03;;;10.73;;
2860;SDS011;1438;50.922;6.704;2022-08-19T12:58:52;11.47;;;9.70;;
2860;SDS011;1438;50.922;6.704;2022-08-19T13:01:19;10.40;;;9.40;;
2860;SDS011;1438;50.922;6.704;2022-08-19T13:03:45;10.33;;;9.33;;
2860;SDS011;1438;50.922;6.704;2022-08-19T13:06:11;12.03;;;10.77;;
2860;SDS011;1438;50.922;6.704;2022-08-19T13:08:38;10.30;;;8.40;;
2860;SDS011;1438;50.922;6.704;2022-08-19T13:11:09;11.90;;;10.57;;
2860;SDS011;1438;50.922;6.704;2022-08-19T13:13:36;10.23;;;9.23;;
2860;SDS011;1438;50.922;6.704;2022-08-19T13:16:06;8.93;;;7.93;;
2860;SDS011;1438;50.922;6.704;2022-08-19T13:18:32;12.80;;;11.60;;
2860;SDS011;1438;50.922;6.704;2022-08-19T13:21:01;10.80;;;9.70;;
2860;SDS011;1438;50.922;6.704;2022-08-19T13:23:28;16.20;;;11.43;;
2860;SDS011;1438;50.922;6.704;2022-08-19T13:25:55;10.87;;;9.67;;
2860;SDS011;1438;50.922;6.704;2022-08-19T13:28:22;10.83;;;9.73;;
2860;SDS011;1438;50.922;6.704;2022-08-19T13:30:48;11.77;;;10.60;;
2860;SDS011;1438;50.922;6.704;2022-08-19T13:33:33;9.17;;;8.27;;
2860;SDS011;1438;50.922;6.704;2022-08-19T13:35:59;10.93;;;9.00;;
2860;SDS011;1438;50.922;6.704;2022-08-19T13:38:26;11.40;;;10.30;;
2860;SDS011;1438;50.922;6.704;2022-08-19T13:40:53;8.10;;;7.30;;
2860;SDS011;1438;50.922;6.704;2022-08-19T13:43:20;11.83;;;9.17;;
2860;SDS011;1438;50.922;6.704;2022-08-19T13:45:52;10.47;;;8.20;;
2860;SDS011;1438;50.922;6.704;2022-08-19T13:48:20;11.03;;;9.93;;
2860;SDS011;1438;50.922;6.704;2022-08-19T13:50:46;10.17;;;8.73;;
2860;SDS011;1438;50.922;6.704;2022-08-19T13:53:13;10.40;;;9.27;;
2860;SDS011;1438;50.922;6.704;2022-08-19T13:55:42;9.40;;;8.50;;
2860;SDS011;1438;50.922;6.704;2022-08-19T13:58:09;10.17;;;7.83;;
2860;SDS011;1438;50.922;6.704;2022-08-19T14:00:37;15.57;;;9.53;;
2860;SDS011;1438;50.922;6.704;2022-08-19T14:03:04;9.70;;;6.73;;
2860;SDS011;1438;50.922;6.704;2022-08-19T14:05:30;8.10;;;5.83;;
2860;SDS011;1438;50.922;6.704;2022-08-19T14:07:57;5.50;;;5.00;;
2860;SDS011;1438;50.922;6.704;2022-08-19T14:10:23;6.53;;;5.90;;
2860;SDS011;1438;50.922;6.704;2022-08-19T14:12:52;6.63;;;6.03;;
2860;SDS011;1438;50.922;6.704;2022-08-19T14:15:20;7.60;;;5.43;;
2860;SDS011;1438;50.922;6.704;2022-08-19T14:17:46;5.60;;;4.63;;
2860;SDS011;1438;50.922;6.704;2022-08-19T14:20:13;4.70;;;3.87;;
2860;SDS011;1438;50.922;6.704;2022-08-19T14:22:41;7.23;;;4.47;;
2860;SDS011;1438;50.922;6.704;2022-08-19T14:25:07;8.30;;;4.23;;
2860;SDS011;1438;50.922;6.704;2022-08-19T14:27:37;7.57;;;4.57;;
2860;SDS011;1438;50.922;6.704;2022-08-19T14:30:04;6.03;;;3.30;;
2860;SDS011;1438;50.922;6.704;2022-08-19T14:32:31;4.10;;;3.10;;
2860;SDS011;1438;50.922;6.704;2022-08-19T14:34:57;5.23;;;3.93;;
2860;SDS011;1438;50.922;6.704;2022-08-19T14:37:24;5.83;;;3.77;;
2860;SDS011;1438;50.922;6.704;2022-08-19T14:39:50;4.80;;;3.77;;
2860;SDS011;1438;50.922;6.704;2022-08-19T14:42:16;5.07;;;4.20;;
2860;SDS011;1438;50.922;6.704;2022-08-19T14:44:42;4.70;;;4.30;;
2860;SDS011;1438;50.922;6.704;2022-08-19T14:47:09;4.93;;;4.00;;
2860;SDS011;1438;50.922;6.704;2022-08-19T14:49:35;4.57;;;3.73;;
2860;SDS011;1438;50.922;6.704;2022-08-19T14:52:02;5.33;;;3.50;;
2860;SDS011;1438;50.922;6.704;2022-08-19T14:54:28;4.40;;;3.97;;
2860;SDS011;1438;50.922;6.704;2022-08-19T14:56:55;4.40;;;3.23;;
2860;SDS011;1438;50.922;6.704;2022-08-19T14:59:21;4.97;;;4.03;;
2860;SDS011;1438;50.922;6.704;2022-08-19T15:01:47;4.07;;;3.67;;
2860;SDS011;1438;50.922;6.704;2022-08-19T15:04:13;4.53;;;3.60;;
2860;SDS011;1438;50.922;6.704;2022-08-19T15:06:39;6.67;;;3.77;;